createdAt,value
2022-08-03T00:02:20.220Z,18.77
2022-08-03T00:04:48.018Z,18.77
2022-08-03T00:07:15.864Z,18.75
2022-08-03T00:09:44.086Z,18.76
2022-08-03T00:12:12.186Z,18.77
2022-08-03T00:14:40.017Z,18.79
2022-08-03T00:17:07.782Z,18.82
2022-08-03T00:19:35.553Z,18.85
2022-08-03T00:22:03.323Z,18.91
2022-08-03T00:24:31.488Z,18.96
2022-08-03T00:26:59.265Z,18.96
2022-08-03T00:29:27.331Z,18.94
2022-08-03T00:32:00.266Z,18.91
2022-08-03T00:34:57.248Z,18.85
2022-08-03T00:37:16.554Z,18.77
2022-08-03T00:39:46.352Z,18.70
2022-08-03T00:42:14.476Z,18.63
2022-08-03T00:44:43.988Z,18.55
2022-08-03T00:47:12.406Z,18.46
2022-08-03T00:49:41.088Z,18.36
2022-08-03T00:52:10.119Z,18.28
2022-08-03T00:54:38.794Z,18.20
2022-08-03T00:57:07.446Z,18.13
2022-08-03T00:59:35.424Z,18.04
2022-08-03T01:02:03.622Z,17.99
2022-08-03T01:04:31.794Z,17.96
2022-08-03T01:07:18.042Z,17.91
2022-08-03T01:09:48.801Z,17.87
2022-08-03T01:12:30.110Z,17.88
2022-08-03T01:14:58.080Z,17.89
2022-08-03T01:17:28.990Z,17.90
2022-08-03T01:20:00.765Z,17.95
2022-08-03T01:22:50.149Z,17.99
2022-08-03T01:25:36.569Z,18.01
2022-08-03T01:28:23.571Z,18.00
2022-08-03T01:30:53.883Z,17.89
2022-08-03T01:33:28.406Z,17.82
2022-08-03T01:35:56.267Z,17.73
2022-08-03T01:38:26.089Z,17.63
2022-08-03T01:40:57.446Z,17.55
2022-08-03T01:44:27.652Z,17.46
2022-08-03T01:46:20.301Z,17.40
2022-08-03T01:48:49.162Z,17.39
2022-08-03T01:51:19.623Z,17.37
2022-08-03T01:53:48.354Z,17.30
2022-08-03T01:56:16.731Z,17.23
2022-08-03T01:58:46.380Z,17.19
2022-08-03T02:01:16.176Z,17.15
2022-08-03T02:03:59.790Z,17.12
2022-08-03T02:07:02.189Z,17.10
2022-08-03T02:09:21.223Z,17.09
2022-08-03T02:11:49.980Z,17.05
2022-08-03T02:14:19.874Z,17.03
2022-08-03T02:16:48.836Z,17.00
2022-08-03T02:19:16.803Z,16.98
2022-08-03T02:21:56.316Z,16.95
2022-08-03T02:24:29.295Z,16.92
2022-08-03T02:26:58.406Z,16.89
2022-08-03T02:29:39.142Z,16.83
2022-08-03T02:32:14.713Z,16.82
2022-08-03T02:34:45.978Z,16.81
2022-08-03T02:37:15.337Z,16.75
2022-08-03T02:39:43.981Z,16.71
2022-08-03T02:42:14.581Z,16.68
2022-08-03T02:44:47.837Z,16.65
2022-08-03T02:47:16.331Z,16.61
2022-08-03T02:49:51.427Z,16.60
2022-08-03T02:52:24.209Z,16.62
2022-08-03T02:54:53.472Z,16.68
2022-08-03T02:57:22.138Z,16.78
2022-08-03T02:59:50.616Z,16.86
2022-08-03T03:02:19.405Z,16.89
2022-08-03T03:05:54.985Z,16.92
2022-08-03T03:07:51.490Z,16.95
2022-08-03T03:10:21.923Z,16.98
2022-08-03T03:12:55.854Z,17.00
2022-08-03T03:15:24.891Z,17.01
2022-08-03T03:17:53.742Z,17.06
2022-08-03T03:20:30.271Z,17.12
2022-08-03T03:23:00.400Z,17.22
2022-08-03T03:25:30.982Z,17.42
2022-08-03T03:27:59.990Z,17.78
2022-08-03T03:30:28.251Z,18.13
2022-08-03T03:32:57.423Z,18.48
2022-08-03T03:35:26.116Z,18.81
2022-08-03T03:37:54.204Z,19.25
2022-08-03T03:40:22.661Z,19.67
2022-08-03T03:42:50.946Z,19.84
2022-08-03T03:45:20.837Z,20.04
2022-08-03T03:47:49.542Z,20.19
2022-08-03T03:50:18.655Z,20.50
2022-08-03T03:52:46.592Z,20.75
2022-08-03T03:55:18.196Z,21.18
2022-08-03T03:57:46.878Z,21.34
2022-08-03T04:00:15.730Z,21.10
2022-08-03T04:02:43.896Z,20.86
2022-08-03T04:05:30.331Z,20.54
2022-08-03T04:08:16.541Z,20.41
2022-08-03T04:10:59.547Z,20.31
2022-08-03T04:13:29.435Z,20.16
2022-08-03T04:15:58.000Z,20.05
2022-08-03T04:18:27.702Z,20.00
2022-08-03T04:21:00.037Z,20.30
2022-08-03T04:23:29.121Z,20.66
2022-08-03T04:25:57.873Z,20.68
2022-08-03T04:28:30.652Z,20.69
2022-08-03T04:31:01.444Z,21.07
2022-08-03T04:33:32.492Z,20.91
2022-08-03T04:36:03.674Z,20.73
2022-08-03T04:38:33.085Z,20.88
2022-08-03T04:41:01.790Z,21.75
2022-08-03T04:43:31.209Z,23.18
2022-08-03T04:45:59.575Z,24.15
2022-08-03T04:48:27.787Z,24.19
2022-08-03T04:50:56.024Z,24.07
2022-08-03T04:53:24.023Z,23.74
2022-08-03T04:55:51.902Z,23.47
2022-08-03T04:58:19.788Z,23.32
2022-08-03T05:00:51.360Z,23.65
2022-08-03T05:03:24.365Z,24.90
2022-08-03T05:05:53.597Z,26.35
2022-08-03T05:08:46.296Z,27.22
2022-08-03T05:11:15.889Z,27.44
2022-08-03T05:13:44.389Z,27.10
2022-08-03T05:16:14.017Z,26.82
2022-08-03T05:18:42.370Z,26.83
2022-08-03T05:21:10.925Z,27.23
2022-08-03T05:23:38.936Z,27.12
2022-08-03T05:26:06.918Z,26.96
2022-08-03T05:28:34.780Z,27.00
2022-08-03T05:31:02.568Z,27.18
2022-08-03T05:33:30.426Z,27.17
2022-08-03T05:36:03.317Z,27.08
2022-08-03T05:38:34.058Z,26.65
2022-08-03T05:41:21.155Z,26.26
2022-08-03T05:43:52.512Z,26.32
2022-08-03T05:46:21.390Z,26.54
2022-08-03T05:48:49.551Z,27.43
2022-08-03T05:51:17.783Z,28.46
2022-08-03T05:53:45.620Z,29.32
2022-08-03T05:56:15.970Z,30.11
2022-08-03T05:58:45.873Z,30.77
2022-08-03T06:01:14.004Z,31.20
2022-08-03T06:03:41.918Z,31.63
2022-08-03T06:06:11.907Z,32.11
2022-08-03T06:08:40.698Z,32.73
2022-08-03T06:11:09.155Z,33.31
2022-08-03T06:13:37.333Z,33.66
2022-08-03T06:16:05.928Z,34.07
2022-08-03T06:18:33.741Z,33.46
2022-08-03T06:21:14.240Z,34.06
2022-08-03T06:23:53.237Z,34.81
2022-08-03T06:26:26.877Z,35.14
2022-08-03T06:28:55.272Z,35.46
2022-08-03T06:31:32.780Z,36.02
2022-08-03T06:34:32.439Z,36.59
2022-08-03T06:36:52.313Z,36.82
2022-08-03T06:39:23.239Z,36.80
2022-08-03T06:41:52.417Z,37.06
2022-08-03T06:44:20.878Z,36.97
2022-08-03T06:46:48.773Z,37.31
2022-08-03T06:49:16.806Z,36.75
2022-08-03T06:52:03.464Z,37.21
2022-08-03T06:54:33.200Z,37.25
2022-08-03T06:57:01.452Z,37.66
2022-08-03T07:00:06.314Z,37.38
2022-08-03T07:02:19.801Z,37.00
2022-08-03T07:04:49.262Z,36.52
2022-08-03T07:07:17.900Z,37.09
2022-08-03T07:09:56.609Z,37.00
2022-08-03T07:12:29.607Z,37.81
2022-08-03T07:15:02.954Z,37.67
2022-08-03T07:17:33.298Z,37.65
2022-08-03T07:20:02.613Z,38.14
2022-08-03T07:22:30.525Z,38.12
2022-08-03T07:24:58.534Z,37.81
2022-08-03T07:27:27.347Z,36.63
2022-08-03T07:29:55.751Z,36.51
2022-08-03T07:32:24.139Z,37.00
2022-08-03T07:34:53.807Z,37.26
2022-08-03T07:37:23.664Z,37.26
2022-08-03T07:39:52.759Z,35.91
2022-08-03T07:42:20.576Z,35.62
2022-08-03T07:44:48.601Z,35.02
2022-08-03T07:47:22.734Z,35.09
2022-08-03T07:49:51.287Z,36.06
2022-08-03T07:52:38.010Z,36.90
2022-08-03T07:55:06.859Z,37.34
2022-08-03T07:57:37.412Z,37.39
2022-08-03T08:00:07.032Z,37.56
2022-08-03T08:02:41.234Z,37.69
2022-08-03T08:05:11.028Z,37.76
2022-08-03T08:07:39.845Z,37.62
2022-08-03T08:10:10.204Z,37.47
2022-08-03T08:12:39.219Z,36.89
2022-08-03T08:15:07.526Z,36.49
2022-08-03T08:17:55.569Z,36.39
2022-08-03T08:20:30.563Z,36.96
2022-08-03T08:23:20.854Z,37.29
2022-08-03T08:25:52.763Z,37.40
2022-08-03T08:28:31.452Z,34.40
2022-08-03T08:31:01.787Z,34.15
2022-08-03T08:33:47.994Z,34.83
2022-08-03T08:36:17.464Z,35.53
2022-08-03T08:38:45.343Z,35.91
2022-08-03T08:41:14.040Z,35.79
2022-08-03T08:43:42.332Z,35.98
2022-08-03T08:46:22.755Z,36.03
2022-08-03T08:48:52.399Z,34.68
2022-08-03T08:51:21.721Z,33.90
2022-08-03T08:53:53.683Z,32.85
2022-08-03T08:56:25.518Z,33.02
2022-08-03T08:58:56.974Z,33.19
2022-08-03T09:01:25.134Z,33.56
2022-08-03T09:03:54.328Z,33.88
2022-08-03T09:06:23.375Z,34.59
2022-08-03T09:08:51.335Z,35.33
2022-08-03T09:12:00.852Z,35.60
2022-08-03T09:14:35.331Z,35.95
2022-08-03T09:17:01.909Z,36.26
2022-08-03T09:19:31.333Z,36.80
2022-08-03T09:22:15.681Z,37.24
2022-08-03T09:25:22.736Z,37.21
2022-08-03T09:27:48.576Z,36.91
2022-08-03T09:30:19.072Z,36.65
2022-08-03T09:33:08.416Z,36.32
2022-08-03T09:35:55.304Z,36.30
2022-08-03T09:38:31.138Z,35.83
2022-08-03T09:41:00.919Z,35.49
2022-08-03T09:43:45.831Z,35.17
2022-08-03T09:46:13.890Z,34.90
2022-08-03T09:48:41.865Z,35.04
2022-08-03T09:51:13.479Z,35.30
2022-08-03T09:54:00.496Z,35.99
2022-08-03T09:56:39.123Z,36.24
2022-08-03T09:59:06.981Z,36.03
2022-08-03T10:01:35.776Z,35.63
2022-08-03T10:04:05.113Z,35.29
2022-08-03T10:06:33.348Z,35.57
2022-08-03T10:09:08.872Z,35.73
2022-08-03T10:11:41.738Z,35.92
2022-08-03T10:14:18.936Z,35.85
2022-08-03T10:16:47.804Z,35.96
2022-08-03T10:19:15.956Z,35.86
2022-08-03T10:21:53.750Z,35.82
2022-08-03T10:24:24.999Z,35.89
2022-08-03T10:26:53.775Z,36.05
2022-08-03T10:29:24.895Z,36.05
2022-08-03T10:31:57.733Z,35.78
2022-08-03T10:34:27.512Z,35.53
2022-08-03T10:36:58.266Z,35.70
2022-08-03T10:39:28.638Z,35.93
2022-08-03T10:41:59.808Z,36.11
2022-08-03T10:44:30.212Z,36.10
2022-08-03T10:46:58.639Z,35.70
2022-08-03T10:49:34.403Z,35.11
2022-08-03T10:52:13.015Z,34.91
2022-08-03T10:55:11.117Z,35.14
2022-08-03T10:57:43.016Z,35.54
2022-08-03T11:00:16.001Z,35.59
2022-08-03T11:03:02.252Z,35.63
2022-08-03T11:05:31.296Z,35.57
2022-08-03T11:08:17.715Z,35.15
2022-08-03T11:10:45.855Z,35.30
2022-08-03T11:13:17.880Z,35.39
2022-08-03T11:15:46.829Z,35.64
2022-08-03T11:18:15.359Z,35.94
2022-08-03T11:20:46.589Z,36.20
2022-08-03T11:23:16.104Z,36.17
2022-08-03T11:26:02.481Z,35.93
2022-08-03T11:28:30.886Z,36.19
2022-08-03T11:31:46.714Z,36.03
2022-08-03T11:34:07.350Z,36.08
2022-08-03T11:36:53.607Z,35.93
2022-08-03T11:39:21.467Z,35.67
2022-08-03T11:41:49.253Z,35.15
2022-08-03T11:44:35.997Z,35.31
2022-08-03T11:47:03.940Z,35.17
2022-08-03T11:49:31.866Z,34.81
2022-08-03T11:51:59.677Z,34.54
2022-08-03T11:54:27.720Z,34.48
2022-08-03T11:56:56.023Z,34.64
2022-08-03T11:59:42.022Z,34.85
2022-08-03T12:02:11.695Z,34.67
2022-08-03T12:04:58.373Z,34.37
2022-08-03T12:08:03.212Z,34.18
2022-08-03T12:10:18.036Z,33.85
2022-08-03T12:12:46.891Z,33.79
2022-08-03T12:15:14.811Z,33.81
2022-08-03T12:17:42.680Z,34.04
2022-08-03T12:20:20.891Z,34.02
2022-08-03T12:23:06.259Z,34.01
2022-08-03T12:25:38.748Z,34.07
2022-08-03T12:28:37.413Z,33.97
2022-08-03T12:31:09.262Z,34.16
2022-08-03T12:33:56.865Z,34.16
2022-08-03T12:36:24.866Z,33.70
2022-08-03T12:38:57.755Z,33.69
2022-08-03T12:41:34.049Z,33.73
2022-08-03T12:44:06.375Z,33.04
2022-08-03T12:46:35.708Z,32.39
2022-08-03T12:49:07.754Z,32.16
2022-08-03T12:51:37.079Z,32.22
2022-08-03T12:54:05.565Z,32.29
2022-08-03T12:56:33.450Z,32.35
2022-08-03T12:59:02.036Z,32.37
2022-08-03T13:01:36.714Z,32.30
2022-08-03T13:04:06.181Z,32.13
2022-08-03T13:06:34.124Z,32.15
2022-08-03T13:09:05.962Z,32.32
2022-08-03T13:11:55.497Z,32.54
2022-08-03T13:14:23.614Z,32.49
2022-08-03T13:16:51.935Z,32.56
2022-08-03T13:19:19.871Z,32.59
2022-08-03T13:22:01.690Z,32.73
2022-08-03T13:24:33.301Z,32.91
2022-08-03T13:27:22.087Z,32.88
2022-08-03T13:29:50.660Z,32.77
2022-08-03T13:32:18.501Z,32.69
2022-08-03T13:34:46.302Z,32.91
2022-08-03T13:37:14.758Z,32.95
2022-08-03T13:39:58.471Z,32.91
2022-08-03T13:42:29.214Z,32.88
2022-08-03T13:44:57.299Z,32.91
2022-08-03T13:47:25.199Z,32.94
2022-08-03T13:50:00.497Z,32.89
2022-08-03T13:52:31.753Z,32.84
2022-08-03T13:55:00.379Z,32.69
2022-08-03T13:58:05.418Z,32.65
2022-08-03T14:00:28.121Z,32.53
2022-08-03T14:03:06.675Z,32.18
2022-08-03T14:05:41.048Z,31.89
2022-08-03T14:08:09.194Z,31.55
2022-08-03T14:10:38.315Z,31.21
2022-08-03T14:13:06.519Z,31.17
2022-08-03T14:15:37.758Z,31.26
2022-08-03T14:18:12.794Z,30.99
2022-08-03T14:20:47.777Z,30.73
2022-08-03T14:23:18.732Z,30.56
2022-08-03T14:25:52.526Z,30.44
2022-08-03T14:28:24.833Z,30.55
2022-08-03T14:30:53.908Z,30.80
2022-08-03T14:33:22.295Z,30.90
2022-08-03T14:35:50.887Z,31.13
2022-08-03T14:38:19.585Z,31.38
2022-08-03T14:40:48.179Z,31.59
2022-08-03T14:43:18.141Z,31.81
2022-08-03T14:45:46.239Z,31.98
2022-08-03T14:49:02.573Z,32.09
2022-08-03T14:51:02.645Z,32.25
2022-08-03T14:53:30.461Z,32.29
2022-08-03T14:55:58.706Z,32.31
2022-08-03T14:58:27.019Z,32.31
2022-08-03T15:00:55.769Z,32.26
2022-08-03T15:03:25.091Z,32.16
2022-08-03T15:05:53.938Z,32.07
2022-08-03T15:08:22.812Z,31.93
2022-08-03T15:10:50.928Z,31.80
2022-08-03T15:13:19.814Z,31.72
2022-08-03T15:15:48.293Z,31.71
2022-08-03T15:18:16.058Z,31.68
2022-08-03T15:20:46.381Z,31.70
2022-08-03T15:23:15.447Z,31.57
2022-08-03T15:26:31.646Z,31.37
2022-08-03T15:28:32.358Z,31.30
2022-08-03T15:31:00.473Z,31.30
2022-08-03T15:33:28.864Z,31.06
2022-08-03T15:35:56.738Z,30.95
2022-08-03T15:38:25.743Z,31.06
2022-08-03T15:40:55.101Z,31.13
2022-08-03T15:43:23.292Z,31.11
2022-08-03T15:46:26.531Z,31.04
2022-08-03T15:48:40.394Z,30.93
2022-08-03T15:51:08.582Z,30.85
2022-08-03T15:53:36.741Z,30.81
2022-08-03T15:56:10.033Z,30.75
2022-08-03T15:59:10.514Z,30.67
2022-08-03T16:01:28.594Z,30.62
2022-08-03T16:03:56.658Z,30.52
2022-08-03T16:06:34.625Z,30.41
2022-08-03T16:09:04.209Z,30.27
2022-08-03T16:11:32.407Z,30.14
2022-08-03T16:14:12.904Z,29.99
2022-08-03T16:16:48.693Z,29.89
2022-08-03T16:19:16.563Z,29.85
2022-08-03T16:21:48.284Z,29.80
2022-08-03T16:24:17.325Z,29.76
2022-08-03T16:26:47.910Z,29.72
2022-08-03T16:29:23.358Z,29.67
2022-08-03T16:31:52.643Z,29.57
2022-08-03T16:34:21.252Z,29.48
2022-08-03T16:36:49.578Z,29.36
2022-08-03T16:39:17.425Z,29.25
2022-08-03T16:41:54.244Z,29.15
2022-08-03T16:44:30.746Z,29.05
2022-08-03T16:46:59.163Z,28.98
2022-08-03T16:49:55.030Z,28.89
2022-08-03T16:52:16.675Z,28.78
2022-08-03T16:54:52.674Z,28.66
2022-08-03T16:57:56.306Z,28.58
2022-08-03T17:00:12.198Z,28.54
2022-08-03T17:03:01.021Z,28.45
2022-08-03T17:05:43.824Z,28.27
2022-08-03T17:08:15.925Z,28.05
2022-08-03T17:10:44.578Z,27.96
2022-08-03T17:13:22.066Z,27.84
2022-08-03T17:16:01.550Z,27.67
2022-08-03T17:18:35.114Z,27.50
2022-08-03T17:21:06.137Z,27.34
2022-08-03T17:23:44.438Z,27.17
2022-08-03T17:26:21.155Z,26.97
2022-08-03T17:28:57.996Z,26.80
2022-08-03T17:31:31.109Z,26.61
2022-08-03T17:34:01.645Z,26.45
2022-08-03T17:36:54.064Z,26.30
2022-08-03T17:39:30.859Z,26.14
2022-08-03T17:42:31.003Z,25.99
2022-08-03T17:44:56.381Z,25.83
2022-08-03T17:47:29.275Z,25.68
2022-08-03T17:50:24.148Z,25.52
2022-08-03T17:53:15.681Z,25.42
2022-08-03T17:56:05.549Z,25.29
2022-08-03T17:58:42.336Z,25.22
2022-08-03T18:02:02.064Z,25.13
2022-08-03T18:04:30.219Z,25.01
2022-08-03T18:07:00.040Z,24.94
2022-08-03T18:10:03.508Z,24.88
2022-08-03T18:12:27.555Z,24.83
2022-08-03T18:15:01.614Z,24.75
2022-08-03T18:17:55.788Z,24.65
2022-08-03T18:20:31.177Z,24.55
2022-08-03T18:23:04.456Z,24.50
2022-08-03T18:25:45.694Z,24.41
2022-08-03T18:28:18.947Z,24.32
2022-08-03T18:30:54.101Z,24.25
2022-08-03T18:34:19.923Z,24.23
2022-08-03T18:36:18.163Z,24.21
2022-08-03T18:38:51.935Z,24.18
2022-08-03T18:41:32.384Z,24.15
2022-08-03T18:44:06.659Z,24.21
2022-08-03T18:46:48.416Z,24.18
2022-08-03T18:49:35.287Z,24.09
2022-08-03T18:52:16.019Z,24.05
2022-08-03T18:55:01.163Z,24.02
2022-08-03T18:57:40.575Z,23.98
2022-08-03T19:00:14.096Z,23.94
2022-08-03T19:02:49.065Z,23.89
2022-08-03T19:05:19.482Z,23.87
2022-08-03T19:08:07.479Z,23.86
2022-08-03T19:10:44.198Z,23.81
2022-08-03T19:13:35.884Z,23.80
2022-08-03T19:16:08.665Z,23.78
2022-08-03T19:18:37.793Z,23.76
2022-08-03T19:21:15.626Z,23.69
2022-08-03T19:23:46.123Z,23.65
2022-08-03T19:26:30.614Z,23.63
2022-08-03T19:28:59.445Z,23.61
2022-08-03T19:31:30.835Z,23.56
2022-08-03T19:34:00.515Z,23.53
2022-08-03T19:36:29.884Z,23.46
2022-08-03T19:38:58.370Z,23.33
2022-08-03T19:41:31.204Z,23.20
2022-08-03T19:44:12.373Z,23.06
2022-08-03T19:46:58.216Z,22.93
2022-08-03T19:50:02.797Z,22.85
2022-08-03T19:52:16.821Z,22.75
2022-08-03T19:57:40.973Z,22.51
2022-08-03T20:00:13.921Z,22.40
2022-08-03T20:02:41.945Z,22.32
2022-08-03T20:05:14.825Z,22.26
2022-08-03T20:07:47.683Z,22.19
2022-08-03T20:10:17.207Z,22.09
2022-08-03T20:12:45.798Z,22.00
2022-08-03T20:15:13.719Z,21.91
2022-08-03T20:17:56.854Z,21.81
2022-08-03T20:20:31.087Z,21.70
2022-08-03T20:23:00.317Z,21.60
2022-08-03T20:25:37.691Z,21.53
2022-08-03T20:28:13.791Z,21.44
2022-08-03T20:30:47.369Z,21.35
2022-08-03T20:33:18.388Z,21.29
2022-08-03T20:35:49.618Z,21.23
2022-08-03T20:38:18.823Z,21.19
2022-08-03T20:40:47.465Z,21.16
2022-08-03T20:43:15.971Z,21.12
2022-08-03T20:45:59.366Z,21.08
2022-08-03T20:48:34.726Z,21.03
2022-08-03T20:51:04.968Z,20.96
2022-08-03T20:53:59.840Z,20.90
2022-08-03T20:56:32.113Z,20.86
2022-08-03T20:59:03.171Z,20.81
2022-08-03T21:01:36.528Z,20.75
2022-08-03T21:04:06.917Z,20.68
2022-08-03T21:06:38.739Z,20.61
2022-08-03T21:09:08.960Z,20.54
2022-08-03T21:11:43.446Z,20.50
2022-08-03T21:13:11.155Z,22.64
2022-08-03T21:14:18.093Z,20.46
2022-08-03T21:16:46.465Z,20.44
2022-08-03T21:19:15.194Z,20.45
2022-08-03T21:21:44.666Z,20.45
2022-08-03T21:24:13.262Z,20.44
2022-08-03T21:26:42.230Z,20.41
2022-08-03T21:29:14.272Z,20.35
2022-08-03T21:31:43.422Z,20.31
2022-08-03T21:34:11.563Z,20.29
2022-08-03T21:36:39.319Z,20.27
2022-08-03T21:39:08.604Z,20.21
2022-08-03T21:41:38.380Z,20.17
2022-08-03T21:44:06.839Z,20.14
2022-08-03T21:46:39.264Z,20.12
2022-08-03T21:50:05.660Z,20.09
2022-08-03T21:51:59.816Z,20.04
2022-08-03T21:54:33.698Z,19.99
2022-08-03T21:57:03.938Z,19.94
2022-08-03T21:59:35.327Z,19.89
2022-08-03T22:02:04.209Z,19.82
2022-08-03T22:04:53.018Z,19.77
2022-08-03T22:07:25.161Z,19.73
2022-08-03T22:09:55.175Z,19.68
2022-08-03T22:12:24.311Z,19.61
2022-08-03T22:15:00.920Z,19.57
2022-08-03T22:17:53.824Z,19.52
2022-08-03T22:20:21.982Z,19.49
2022-08-03T22:22:56.045Z,19.49
2022-08-03T22:25:27.723Z,19.51
2022-08-03T22:27:56.017Z,19.52
2022-08-03T22:30:24.083Z,19.49
2022-08-03T22:32:53.290Z,19.50
2022-08-03T22:35:21.840Z,19.49
2022-08-03T22:37:51.761Z,19.50
2022-08-03T22:40:20.834Z,19.50
2022-08-03T22:42:52.333Z,19.48
2022-08-03T22:46:07.036Z,19.45
2022-08-03T22:48:08.738Z,19.44
2022-08-03T22:50:37.103Z,19.43
2022-08-03T22:53:06.935Z,19.42
2022-08-03T22:55:34.711Z,19.41
2022-08-03T22:58:02.489Z,19.39
2022-08-03T23:00:30.511Z,19.36
2022-08-03T23:03:00.583Z,19.32
2022-08-03T23:06:01.865Z,19.28
2022-08-03T23:08:21.047Z,19.23
2022-08-03T23:10:50.126Z,19.16
2022-08-03T23:13:18.588Z,19.10
2022-08-03T23:15:52.061Z,19.06
2022-08-03T23:18:22.201Z,19.05
2022-08-03T23:20:51.653Z,19.02
2022-08-03T23:23:20.629Z,18.98
2022-08-03T23:25:50.694Z,18.94
2022-08-03T23:28:19.223Z,18.90
2022-08-03T23:30:49.514Z,18.82
2022-08-03T23:33:18.291Z,18.72
2022-08-03T23:36:28.844Z,18.66
2022-08-03T23:38:48.811Z,18.55
2022-08-03T23:41:17.625Z,18.45
2022-08-03T23:43:52.010Z,18.33
2022-08-03T23:46:22.583Z,18.23
2022-08-03T23:48:51.117Z,18.19
2022-08-03T23:51:34.254Z,18.18
2022-08-03T23:54:11.329Z,18.16
2022-08-03T23:56:46.053Z,18.14
2022-08-03T23:59:32.438Z,18.10
